Time;durP1;ratioP1;P1;durP2;ratioP2;P2;SDS_P1;SDS_P2;PMS_P1;PMS_P2;Temp;Humidity;BMP_temperature;BMP_pressure;BME280_temperature;BME280_humidity;BME280_pressure;Samples;Min_cycle;Max_cycle;Signal;HPM_P1;HPM_P2
2022/01/04 00:00:42;;;;;;;18.33;7.83;;;;;;;;;;6097371;28;20657;-65
2022/01/04 00:04:04;;;;;;;15.83;6.40;;;;;;;;;;6094953;28;20232;-66
2022/01/04 00:07:27;;;;;;;18.17;6.90;;;;;;;;;;6094684;28;21207;-66
2022/01/04 00:10:49;;;;;;;8.23;6.40;;;;;;;;;;6104752;28;20327;-64
2022/01/04 00:14:10;;;;;;;14.70;8.67;;;;;;;;;;6110493;28;20315;-64
2022/01/04 00:17:32;;;;;;;15.13;8.23;;;;;;;;;;6111606;28;20227;-66
2022/01/04 00:20:53;;;;;;;9.17;7.30;;;;;;;;;;6109174;28;20322;-65
2022/01/04 00:24:14;;;;;;;12.10;6.97;;;;;;;;;;6106526;28;20243;-65
2022/01/04 00:27:35;;;;;;;15.20;7.70;;;;;;;;;;6110896;28;20223;-65
2022/01/04 00:30:55;;;;;;;12.17;7.97;;;;;;;;;;6109961;28;20227;-66
2022/01/04 00:34:17;;;;;;;12.63;7.77;;;;;;;;;;6111632;28;20232;-64
2022/01/04 00:37:37;;;;;;;16.50;7.10;;;;;;;;;;6108704;28;20232;-65
2022/01/04 00:40:58;;;;;;;15.47;8.67;;;;;;;;;;6109201;28;20523;-64
2022/01/04 00:44:18;;;;;;;9.60;6.70;;;;;;;;;;6112106;28;20232;-64
2022/01/04 00:47:45;;;;;;;14.60;7.27;;;;;;;;;;6107631;28;20243;-65
2022/01/04 00:51:09;;;;;;;12.17;7.50;;;;;;;;;;6111424;28;20232;-64
2022/01/04 00:54:30;;;;;;;11.47;7.03;;;;;;;;;;6107359;28;20251;-65
2022/01/04 00:57:50;;;;;;;12.80;7.10;;;;;;;;;;6107451;28;20227;-66
2022/01/04 01:01:11;;;;;;;13.60;8.30;;;;;;;;;;6106802;28;20235;-66
2022/01/04 01:04:31;;;;;;;12.67;8.27;;;;;;;;;;6108674;28;20235;-65
2022/01/04 01:07:54;;;;;;;17.37;8.47;;;;;;;;;;6112697;28;20631;-65
2022/01/04 01:11:15;;;;;;;16.10;8.80;;;;;;;;;;6108912;28;20228;-65
2022/01/04 01:14:36;;;;;;;14.83;8.33;;;;;;;;;;6108499;28;20228;-65
2022/01/04 01:17:56;;;;;;;11.27;7.03;;;;;;;;;;6105649;28;20235;-65
2022/01/04 01:21:17;;;;;;;12.37;8.07;;;;;;;;;;6108325;28;21018;-64
2022/01/04 01:24:39;;;;;;;15.77;7.90;;;;;;;;;;6107754;28;20235;-64
2022/01/04 01:28:00;;;;;;;13.57;8.57;;;;;;;;;;6107904;28;20256;-63
2022/01/04 01:31:20;;;;;;;13.53;9.07;;;;;;;;;;6108268;28;20316;-65
2022/01/04 01:34:41;;;;;;;13.90;7.83;;;;;;;;;;6107895;28;20252;-64
2022/01/04 01:38:05;;;;;;;17.40;8.73;;;;;;;;;;6110545;28;20314;-64
2022/01/04 01:41:27;;;;;;;16.83;8.80;;;;;;;;;;6107627;28;20232;-64
2022/01/04 01:44:48;;;;;;;16.30;9.97;;;;;;;;;;6110127;28;20236;-64
2022/01/04 01:48:08;;;;;;;8.07;6.63;;;;;;;;;;6107191;28;20312;-64
2022/01/04 01:51:30;;;;;;;12.17;8.17;;;;;;;;;;6106758;28;20220;-65
2022/01/04 01:54:51;;;;;;;14.03;7.07;;;;;;;;;;6108749;28;20235;-66
2022/01/04 01:58:12;;;;;;;18.37;8.20;;;;;;;;;;6106577;28;20224;-64
2022/01/04 02:01:36;;;;;;;11.47;8.03;;;;;;;;;;6109461;28;20311;-64
2022/01/04 02:04:56;;;;;;;13.60;8.10;;;;;;;;;;6111052;28;20236;-66
2022/01/04 02:08:17;;;;;;;14.07;8.30;;;;;;;;;;6112547;28;20224;-65
2022/01/04 02:11:39;;;;;;;12.83;8.17;;;;;;;;;;6111585;28;20236;-64
2022/01/04 02:15:01;;;;;;;14.17;7.73;;;;;;;;;;6111865;28;20235;-66
2022/01/04 02:18:21;;;;;;;11.07;8.90;;;;;;;;;;6112465;28;20971;-64
2022/01/04 02:21:43;;;;;;;12.77;7.97;;;;;;;;;;6108904;28;20239;-65
2022/01/04 02:25:04;;;;;;;15.03;9.20;;;;;;;;;;6111679;28;20247;-64
2022/01/04 02:28:25;;;;;;;10.80;8.73;;;;;;;;;;6112516;28;20228;-65
2022/01/04 02:31:46;;;;;;;15.10;10.13;;;;;;;;;;6109132;28;20236;-65
2022/01/04 02:35:07;;;;;;;16.73;9.27;;;;;;;;;;6113301;28;20259;-64
2022/01/04 02:38:29;;;;;;;14.63;9.40;;;;;;;;;;6109922;28;20677;-65
2022/01/04 02:41:49;;;;;;;16.33;9.30;;;;;;;;;;6109643;28;20228;-64
2022/01/04 02:45:10;;;;;;;15.63;10.23;;;;;;;;;;6110273;28;20571;-65
2022/01/04 02:48:31;;;;;;;18.07;11.67;;;;;;;;;;6110847;28;20239;-65
2022/01/04 02:51:51;;;;;;;15.27;10.67;;;;;;;;;;6108390;28;20764;-65
2022/01/04 02:55:14;;;;;;;12.93;10.33;;;;;;;;;;6111105;28;21724;-65
2022/01/04 02:58:35;;;;;;;18.90;11.83;;;;;;;;;;6111746;28;20232;-64
2022/01/04 03:01:56;;;;;;;17.97;11.67;;;;;;;;;;6101826;28;20236;-65
2022/01/04 03:05:16;;;;;;;19.50;10.23;;;;;;;;;;6109099;28;20244;-65
2022/01/04 03:08:37;;;;;;;15.60;10.70;;;;;;;;;;6112813;28;20244;-65
2022/01/04 03:11:59;;;;;;;16.57;11.83;;;;;;;;;;6112342;28;20240;-65
2022/01/04 03:15:20;;;;;;;15.43;10.93;;;;;;;;;;6111859;28;20239;-65
2022/01/04 03:19:00;;;;;;;12.67;11.40;;;;;;;;;;6106270;28;20745;-64
2022/01/04 03:22:21;;;;;;;14.57;11.27;;;;;;;;;;6108753;28;20235;-65
2022/01/04 03:25:42;;;;;;;18.30;11.27;;;;;;;;;;6110702;28;20235;-64
2022/01/04 03:29:08;;;;;;;22.00;12.10;;;;;;;;;;6112686;28;20637;-65
2022/01/04 03:32:28;;;;;;;14.77;10.50;;;;;;;;;;6112557;28;20247;-65
2022/01/04 03:35:49;;;;;;;15.93;12.17;;;;;;;;;;6107018;28;20264;-65
2022/01/04 03:39:11;;;;;;;13.13;11.30;;;;;;;;;;6115749;28;20665;-65
2022/01/04 03:42:31;;;;;;;21.60;12.07;;;;;;;;;;6113606;28;20243;-65
2022/01/04 03:45:53;;;;;;;16.93;12.83;;;;;;;;;;6105531;28;20243;-65
2022/01/04 03:49:13;;;;;;;18.40;12.67;;;;;;;;;;6107980;28;20239;-65
2022/01/04 03:52:35;;;;;;;16.70;12.33;;;;;;;;;;6109419;28;20908;-64
2022/01/04 03:55:55;;;;;;;15.07;12.40;;;;;;;;;;6112852;28;20346;-66
2022/01/04 03:59:16;;;;;;;20.10;12.23;;;;;;;;;;6106815;28;20240;-65
2022/01/04 04:02:38;;;;;;;20.53;14.03;;;;;;;;;;6106822;28;20235;-64
2022/01/04 04:05:58;;;;;;;16.13;12.63;;;;;;;;;;6108716;28;20243;-65
2022/01/04 04:09:19;;;;;;;15.47;12.60;;;;;;;;;;6110466;28;20250;-64
2022/01/04 04:12:39;;;;;;;17.13;13.60;;;;;;;;;;6101813;28;20323;-65
2022/01/04 04:16:00;;;;;;;22.00;14.97;;;;;;;;;;6103718;28;20235;-64
2022/01/04 04:19:22;;;;;;;20.90;14.43;;;;;;;;;;6110149;28;20669;-65
2022/01/04 04:22:42;;;;;;;16.97;12.93;;;;;;;;;;6107171;28;20224;-65
2022/01/04 04:26:04;;;;;;;17.70;12.63;;;;;;;;;;6106618;28;20251;-64
2022/01/04 04:29:24;;;;;;;15.73;12.40;;;;;;;;;;6109047;28;20220;-65
2022/01/04 04:32:45;;;;;;;19.30;13.20;;;;;;;;;;6105047;28;20231;-65
2022/01/04 04:36:08;;;;;;;18.13;13.60;;;;;;;;;;6108107;28;20236;-65
2022/01/04 04:39:28;;;;;;;22.80;15.83;;;;;;;;;;6107955;28;20236;-65
2022/01/04 04:42:49;;;;;;;15.47;13.67;;;;;;;;;;6108409;28;20311;-64
2022/01/04 04:46:09;;;;;;;15.07;13.27;;;;;;;;;;6106351;28;20578;-66
2022/01/04 04:49:30;;;;;;;18.60;14.90;;;;;;;;;;6099376;28;20236;-64
2022/01/04 04:52:52;;;;;;;22.70;14.77;;;;;;;;;;6093288;28;20244;-64
2022/01/04 04:56:13;;;;;;;18.80;14.30;;;;;;;;;;6099239;28;21627;-65
2022/01/04 04:59:34;;;;;;;17.83;13.80;;;;;;;;;;6093557;28;20240;-65
2022/01/04 05:02:54;;;;;;;22.27;15.67;;;;;;;;;;6096367;28;20319;-65
2022/01/04 05:06:15;;;;;;;17.70;13.67;;;;;;;;;;6097626;28;20334;-65
2022/01/04 05:09:37;;;;;;;16.87;12.83;;;;;;;;;;6096383;28;20231;-64
2022/01/04 05:12:58;;;;;;;17.70;15.80;;;;;;;;;;6094741;28;20228;-65
2022/01/04 05:16:18;;;;;;;16.70;14.57;;;;;;;;;;6088725;28;20236;-65
2022/01/04 05:19:39;;;;;;;23.67;14.27;;;;;;;;;;6092380;28;20235;-65
2022/01/04 05:23:00;;;;;;;18.53;13.47;;;;;;;;;;6097938;28;20247;-65
2022/01/04 05:26:22;;;;;;;17.30;13.70;;;;;;;;;;6100925;28;20354;-65
2022/01/04 05:29:43;;;;;;;22.67;15.57;;;;;;;;;;6097168;28;20505;-64
2022/01/04 05:33:03;;;;;;;19.53;15.23;;;;;;;;;;6096391;28;20791;-66
2022/01/04 05:36:24;;;;;;;19.30;14.63;;;;;;;;;;6089409;28;20232;-65
2022/01/04 05:39:44;;;;;;;18.83;15.60;;;;;;;;;;6078477;28;20232;-66
2022/01/04 05:43:06;;;;;;;18.00;16.00;;;;;;;;;;6082897;28;20232;-65
2022/01/04 05:46:27;;;;;;;20.80;15.50;;;;;;;;;;6095753;28;20235;-65
2022/01/04 05:49:48;;;;;;;25.30;15.90;;;;;;;;;;6103734;28;20227;-66
2022/01/04 05:53:08;;;;;;;21.37;16.27;;;;;;;;;;6091102;28;20240;-66
2022/01/04 05:56:29;;;;;;;21.50;15.33;;;;;;;;;;6106347;28;22537;-65
2022/01/04 05:59:51;;;;;;;19.50;15.50;;;;;;;;;;6099729;28;20227;-65
2022/01/04 06:03:11;;;;;;;22.30;16.13;;;;;;;;;;6097341;28;21196;-66
2022/01/04 06:06:32;;;;;;;21.60;15.30;;;;;;;;;;6100124;28;21532;-65
2022/01/04 06:09:54;;;;;;;17.33;14.77;;;;;;;;;;6105715;28;20641;-65
2022/01/04 06:16:54;;;;;;;22.17;18.30;;;;;;;;;;6107104;28;20228;-65
2022/01/04 06:20:15;;;;;;;25.03;19.80;;;;;;;;;;6103789;28;20633;-64
2022/01/04 06:23:36;;;;;;;24.63;18.07;;;;;;;;;;6108827;28;20239;-65
2022/01/04 06:26:57;;;;;;;20.27;17.27;;;;;;;;;;6113662;28;20625;-65
2022/01/04 06:30:18;;;;;;;25.63;18.87;;;;;;;;;;6109353;28;20227;-65
2022/01/04 06:33:40;;;;;;;22.93;18.77;;;;;;;;;;6108122;28;20251;-64
2022/01/04 06:37:01;;;;;;;22.83;19.80;;;;;;;;;;6107025;28;20236;-64
2022/01/04 06:40:21;;;;;;;30.07;18.83;;;;;;;;;;6097555;28;20256;-65
2022/01/04 06:43:42;;;;;;;25.90;19.20;;;;;;;;;;6101823;28;20262;-65
2022/01/04 06:47:03;;;;;;;22.67;18.43;;;;;;;;;;6105165;28;20260;-64
2022/01/04 06:50:25;;;;;;;26.77;19.70;;;;;;;;;;6105951;28;20307;-65
2022/01/04 06:53:46;;;;;;;28.10;19.30;;;;;;;;;;6094835;28;20228;-64
2022/01/04 06:57:06;;;;;;;26.90;19.07;;;;;;;;;;6111339;28;20312;-65
2022/01/04 07:00:27;;;;;;;23.30;19.00;;;;;;;;;;6094261;28;20235;-66
2022/01/04 07:03:47;;;;;;;25.80;18.07;;;;;;;;;;6104591;28;20342;-62
2022/01/04 07:07:09;;;;;;;21.90;17.90;;;;;;;;;;6106975;28;20239;-62
2022/01/04 07:10:29;;;;;;;22.40;18.43;;;;;;;;;;6092627;28;20570;-63
2022/01/04 07:13:50;;;;;;;27.93;19.23;;;;;;;;;;6093046;28;20351;-62
2022/01/04 07:17:11;;;;;;;22.67;20.03;;;;;;;;;;6086743;28;20259;-64
2022/01/04 07:20:31;;;;;;;25.73;19.10;;;;;;;;;;6093478;28;20236;-65
2022/01/04 07:23:54;;;;;;;22.80;17.80;;;;;;;;;;6092085;28;20240;-66
2022/01/04 07:27:15;;;;;;;23.73;17.10;;;;;;;;;;6093982;28;20236;-65
2022/01/04 07:30:35;;;;;;;24.20;18.30;;;;;;;;;;6091266;28;20240;-64
2022/01/04 07:33:56;;;;;;;22.57;18.90;;;;;;;;;;6092076;28;20267;-64
2022/01/04 07:37:16;;;;;;;24.10;18.00;;;;;;;;;;6089566;28;20263;-65
2022/01/04 07:40:39;;;;;;;22.77;17.23;;;;;;;;;;6097071;28;20244;-64
2022/01/04 07:43:59;;;;;;;25.97;18.00;;;;;;;;;;6097022;28;20248;-64
2022/01/04 07:47:19;;;;;;;21.47;18.30;;;;;;;;;;6096736;28;20240;-64
2022/01/04 07:50:41;;;;;;;21.63;17.67;;;;;;;;;;6097801;28;20248;-66
2022/01/04 07:54:01;;;;;;;27.20;20.83;;;;;;;;;;6103117;28;20248;-64
2022/01/04 07:57:23;;;;;;;23.03;18.43;;;;;;;;;;6103167;28;20232;-65
2022/01/04 08:00:44;;;;;;;25.00;17.77;;;;;;;;;;6100038;28;20255;-66
2022/01/04 08:04:05;;;;;;;27.30;18.87;;;;;;;;;;6106782;28;20232;-64
2022/01/04 08:07:26;;;;;;;23.23;17.30;;;;;;;;;;6104934;28;20239;-64
2022/01/04 08:10:48;;;;;;;24.83;18.03;;;;;;;;;;6104782;28;20326;-64
2022/01/04 08:14:09;;;;;;;24.33;18.80;;;;;;;;;;6102861;28;20954;-64
2022/01/04 08:17:30;;;;;;;26.17;18.90;;;;;;;;;;6103057;28;20259;-64
2022/01/04 08:20:55;;;;;;;21.60;16.63;;;;;;;;;;6093929;28;20420;-64
2022/01/04 08:24:15;;;;;;;23.30;18.07;;;;;;;;;;6102173;28;20744;-63
2022/01/04 08:27:36;;;;;;;21.00;16.43;;;;;;;;;;6105422;28;20760;-65
2022/01/04 08:30:58;;;;;;;25.23;19.20;;;;;;;;;;6101599;28;20243;-66
2022/01/04 08:34:18;;;;;;;28.30;18.37;;;;;;;;;;6100063;28;20319;-64
2022/01/04 08:37:39;;;;;;;21.67;17.00;;;;;;;;;;6102800;28;20243;-66
2022/01/04 08:41:00;;;;;;;26.87;18.83;;;;;;;;;;6105943;28;20231;-65
2022/01/04 08:44:20;;;;;;;21.80;17.43;;;;;;;;;;6105964;28;20227;-66
2022/01/04 08:47:42;;;;;;;26.37;18.37;;;;;;;;;;6102172;28;20235;-65
2022/01/04 08:51:02;;;;;;;25.13;18.33;;;;;;;;;;6101468;28;20236;-65
2022/01/04 08:54:23;;;;;;;25.63;18.70;;;;;;;;;;6104021;28;20778;-64
2022/01/04 08:57:43;;;;;;;23.13;17.90;;;;;;;;;;6100981;28;20240;-63
2022/01/04 09:01:04;;;;;;;21.17;17.80;;;;;;;;;;6099829;28;20244;-62
2022/01/04 09:04:26;;;;;;;24.63;17.77;;;;;;;;;;6098634;28;20235;-64
2022/01/04 09:07:46;;;;;;;22.00;19.33;;;;;;;;;;6103830;28;20243;-64
2022/01/04 09:11:07;;;;;;;21.13;18.53;;;;;;;;;;6099856;28;20577;-63
2022/01/04 09:14:40;;;;;;;20.87;18.80;;;;;;;;;;6098680;28;20236;-64
2022/01/04 09:21:41;;;;;;;23.13;17.33;;;;;;;;;;6105548;28;20232;-66
2022/01/04 09:25:02;;;;;;;21.10;18.97;;;;;;;;;;6104270;28;20224;-65
2022/01/04 09:28:23;;;;;;;19.97;17.80;;;;;;;;;;6106601;28;20381;-67
2022/01/04 09:31:43;;;;;;;21.40;17.03;;;;;;;;;;6101989;28;20243;-66
2022/01/04 09:35:04;;;;;;;19.53;16.37;;;;;;;;;;6106049;28;20235;-65
2022/01/04 09:38:27;;;;;;;22.97;15.17;;;;;;;;;;6105559;28;20556;-65
2022/01/04 09:41:48;;;;;;;20.93;17.73;;;;;;;;;;6102059;28;20239;-66
2022/01/04 09:45:09;;;;;;;18.50;16.60;;;;;;;;;;6100203;28;22116;-67
2022/01/04 09:48:30;;;;;;;20.47;16.23;;;;;;;;;;6105438;28;20232;-66
2022/01/04 09:51:51;;;;;;;19.60;16.67;;;;;;;;;;6096096;28;20231;-66
2022/01/04 09:55:14;;;;;;;23.53;19.13;;;;;;;;;;6105009;28;20327;-66
2022/01/04 09:58:35;;;;;;;20.50;16.33;;;;;;;;;;6103284;28;20638;-65
2022/01/04 10:02:02;;;;;;;20.33;16.70;;;;;;;;;;6102615;28;20244;-65
2022/01/04 10:05:25;;;;;;;21.77;17.90;;;;;;;;;;6096183;28;20243;-65
2022/01/04 10:08:52;;;;;;;17.63;15.37;;;;;;;;;;6104790;28;20682;-66
2022/01/04 10:12:15;;;;;;;20.40;17.70;;;;;;;;;;6103308;28;20323;-65
2022/01/04 10:15:37;;;;;;;20.17;17.07;;;;;;;;;;6106599;28;20577;-65
2022/01/04 10:18:58;;;;;;;17.93;15.97;;;;;;;;;;6105675;28;20606;-64
2022/01/04 10:22:20;;;;;;;24.60;16.67;;;;;;;;;;6104422;28;20239;-63
2022/01/04 10:25:41;;;;;;;19.53;17.63;;;;;;;;;;6110548;28;20516;-63
2022/01/04 10:29:18;;;;;;;20.63;15.00;;;;;;;;;;6112167;28;20244;-64
2022/01/04 10:32:49;;;;;;;17.63;15.63;;;;;;;;;;6105040;28;20227;-64
2022/01/04 10:36:12;;;;;;;21.63;16.17;;;;;;;;;;6105820;28;20231;-66
2022/01/04 10:39:33;;;;;;;21.70;15.80;;;;;;;;;;6109903;28;20513;-66
2022/01/04 10:42:53;;;;;;;18.20;16.10;;;;;;;;;;6109327;28;20235;-66
2022/01/04 10:46:17;;;;;;;18.67;16.77;;;;;;;;;;6104180;28;20624;-66
2022/01/04 10:49:41;;;;;;;23.67;18.10;;;;;;;;;;6107452;28;20240;-67
2022/01/04 10:53:02;;;;;;;9.27;5.80;;;;;;;;;;6107181;28;20247;-67
2022/01/04 10:56:24;;;;;;;6.07;3.67;;;;;;;;;;6108495;28;20224;-66
2022/01/04 10:59:45;;;;;;;6.00;4.10;;;;;;;;;;6113064;28;20228;-67
2022/01/04 11:03:21;;;;;;;7.10;4.70;;;;;;;;;;6104163;28;20243;-66
2022/01/04 11:06:42;;;;;;;6.97;6.27;;;;;;;;;;6118086;28;20227;-67
2022/01/04 11:10:03;;;;;;;11.47;6.57;;;;;;;;;;6109390;28;20232;-68
2022/01/04 11:13:24;;;;;;;11.13;8.83;;;;;;;;;;6109222;28;20232;-65
2022/01/04 11:16:44;;;;;;;9.93;7.37;;;;;;;;;;6099983;28;20231;-64
2022/01/04 11:20:07;;;;;;;11.40;8.80;;;;;;;;;;6109181;28;20239;-67
2022/01/04 11:23:30;;;;;;;11.70;9.00;;;;;;;;;;6107913;28;20232;-65
2022/01/04 11:26:52;;;;;;;14.23;10.70;;;;;;;;;;6106888;28;20228;-67
2022/01/04 11:30:15;;;;;;;11.67;9.87;;;;;;;;;;6106673;28;20236;-66
2022/01/04 11:33:44;;;;;;;13.03;8.57;;;;;;;;;;6107967;28;20259;-67
2022/01/04 11:37:06;;;;;;;10.30;8.07;;;;;;;;;;6107519;28;20263;-66
2022/01/04 11:40:28;;;;;;;6.43;4.50;;;;;;;;;;6105642;28;20243;-65
2022/01/04 11:43:49;;;;;;;4.03;3.53;;;;;;;;;;6105382;28;20232;-66
2022/01/04 11:47:10;;;;;;;4.83;3.10;;;;;;;;;;6110541;28;20224;-64
2022/01/04 11:50:35;;;;;;;5.60;2.97;;;;;;;;;;6106318;28;20306;-62
2022/01/04 11:54:11;;;;;;;1.60;1.47;;;;;;;;;;6107709;28;20261;-61
2022/01/04 11:57:39;;;;;;;2.93;1.67;;;;;;;;;;6108788;28;20235;-62
2022/01/04 12:01:01;;;;;;;2.93;2.00;;;;;;;;;;6104867;28;20406;-66
2022/01/04 12:04:40;;;;;;;5.20;3.03;;;;;;;;;;6107916;28;20299;-66
2022/01/04 12:08:03;;;;;;;4.60;1.87;;;;;;;;;;6104534;28;20319;-64
2022/01/04 12:11:38;;;;;;;7.23;3.13;;;;;;;;;;6094960;28;20240;-66
2022/01/04 12:15:14;;;;;;;3.73;2.43;;;;;;;;;;6098988;28;22081;-66
2022/01/04 12:19:01;;;;;;;3.53;2.13;;;;;;;;;;6106575;28;20257;-67
2022/01/04 12:22:31;;;;;;;5.67;2.13;;;;;;;;;;6098863;28;20224;-65
2022/01/04 12:26:08;;;;;;;3.40;2.20;;;;;;;;;;6106914;28;20232;-65
2022/01/04 12:29:32;;;;;;;5.03;2.80;;;;;;;;;;6106627;28;20250;-66
2022/01/04 12:32:53;;;;;;;7.03;2.67;;;;;;;;;;6105198;28;20232;-66
2022/01/04 12:36:25;;;;;;;3.53;2.17;;;;;;;;;;6110925;28;20240;-66
2022/01/04 12:39:47;;;;;;;4.03;2.83;;;;;;;;;;6098969;28;20235;-65
2022/01/04 12:43:09;;;;;;;5.33;2.53;;;;;;;;;;6096087;28;20804;-64
2022/01/04 12:46:31;;;;;;;4.43;2.40;;;;;;;;;;6098052;28;20255;-64
2022/01/04 12:49:52;;;;;;;4.10;2.20;;;;;;;;;;6071366;28;20358;-65
2022/01/04 12:53:13;;;;;;;2.43;1.33;;;;;;;;;;6085467;28;20236;-66
2022/01/04 12:56:40;;;;;;;4.50;1.67;;;;;;;;;;6079491;28;20675;-65
2022/01/04 13:00:01;;;;;;;2.37;1.60;;;;;;;;;;6108483;28;20227;-63
2022/01/04 13:03:31;;;;;;;3.03;1.30;;;;;;;;;;6095696;28;20638;-65
2022/01/04 13:06:52;;;;;;;7.20;2.17;;;;;;;;;;6103455;28;20338;-66
2022/01/04 13:10:13;;;;;;;1.20;1.10;;;;;;;;;;6106623;28;20318;-62
2022/01/04 13:13:35;;;;;;;2.20;1.10;;;;;;;;;;6112136;28;20227;-63
2022/01/04 13:17:02;;;;;;;1.43;1.00;;;;;;;;;;6107740;28;20239;-66
2022/01/04 13:20:23;;;;;;;1.77;1.03;;;;;;;;;;6106924;28;20239;-65
2022/01/04 13:23:45;;;;;;;1.37;0.90;;;;;;;;;;6109030;28;20228;-66
2022/01/04 13:27:15;;;;;;;1.10;0.97;;;;;;;;;;6107347;28;20235;-65
2022/01/04 13:30:41;;;;;;;6.83;1.80;;;;;;;;;;6107724;28;20239;-65
2022/01/04 13:34:02;;;;;;;2.50;2.10;;;;;;;;;;6106007;28;20228;-66
2022/01/04 13:37:23;;;;;;;2.87;2.60;;;;;;;;;;6106873;28;20228;-65
2022/01/04 13:40:43;;;;;;;1.97;1.87;;;;;;;;;;6111747;28;20255;-66
2022/01/04 13:44:05;;;;;;;3.03;2.83;;;;;;;;;;6108058;28;20871;-65
2022/01/04 13:47:32;;;;;;;3.07;2.87;;;;;;;;;;6110774;28;20231;-65
2022/01/04 13:50:53;;;;;;;3.03;2.83;;;;;;;;;;6110573;28;20708;-66
2022/01/04 13:54:18;;;;;;;3.43;3.23;;;;;;;;;;6109378;28;20231;-67
2022/01/04 13:57:38;;;;;;;3.87;3.57;;;;;;;;;;6107995;28;20318;-66
2022/01/04 14:00:59;;;;;;;3.93;3.73;;;;;;;;;;6113087;28;20239;-66
2022/01/04 14:04:21;;;;;;;3.93;3.63;;;;;;;;;;6110100;28;20345;-65
2022/01/04 14:07:42;;;;;;;2.83;2.73;;;;;;;;;;6112907;28;20244;-65
2022/01/04 14:11:03;;;;;;;3.00;2.80;;;;;;;;;;6114970;28;20232;-65
2022/01/04 14:14:24;;;;;;;2.80;2.60;;;;;;;;;;6112680;28;20239;-64
2022/01/04 14:17:45;;;;;;;2.60;2.40;;;;;;;;;;6112453;28;20248;-66
2022/01/04 14:21:07;;;;;;;2.70;2.50;;;;;;;;;;6115392;28;20240;-65
2022/01/04 14:24:48;;;;;;;1.60;1.50;;;;;;;;;;6113481;28;20231;-65
2022/01/04 14:28:08;;;;;;;3.20;1.23;;;;;;;;;;6114900;28;20243;-65
2022/01/04 14:31:29;;;;;;;1.50;1.33;;;;;;;;;;6114574;28;20318;-66
2022/01/04 14:34:50;;;;;;;1.50;1.40;;;;;;;;;;6112417;28;20239;-65
2022/01/04 14:38:12;;;;;;;1.27;1.20;;;;;;;;;;6109855;28;20285;-65
2022/01/04 14:41:32;;;;;;;1.43;1.17;;;;;;;;;;6108543;28;20231;-65
2022/01/04 14:44:53;;;;;;;1.30;1.27;;;;;;;;;;6111355;28;21091;-66
2022/01/04 14:48:17;;;;;;;1.17;1.03;;;;;;;;;;6115557;28;20235;-65
2022/01/04 14:51:37;;;;;;;2.20;1.20;;;;;;;;;;6109264;28;20235;-64
2022/01/04 14:54:59;;;;;;;2.40;1.03;;;;;;;;;;6105909;28;21169;-64
2022/01/04 14:58:20;;;;;;;0.80;0.80;;;;;;;;;;6111198;28;20608;-63
2022/01/04 15:01:40;;;;;;;2.03;1.70;;;;;;;;;;6106085;28;20245;-63
2022/01/04 15:05:01;;;;;;;9.07;8.10;;;;;;;;;;6124459;28;20318;-66
2022/01/04 15:08:22;;;;;;;3.47;3.03;;;;;;;;;;6108140;28;20239;-67
2022/01/04 15:11:44;;;;;;;3.30;1.67;;;;;;;;;;6110026;28;20236;-66
2022/01/04 15:15:06;;;;;;;2.33;0.77;;;;;;;;;;6115566;28;20232;-65
2022/01/04 15:18:26;;;;;;;1.67;1.13;;;;;;;;;;6110047;28;20232;-65
2022/01/04 15:21:47;;;;;;;2.20;1.23;;;;;;;;;;6106347;28;20240;-66
2022/01/04 15:25:08;;;;;;;2.37;1.00;;;;;;;;;;6107961;28;20326;-66
2022/01/04 15:28:30;;;;;;;2.03;1.53;;;;;;;;;;6112425;28;20236;-65
2022/01/04 15:31:51;;;;;;;2.40;1.10;;;;;;;;;;6113596;28;20232;-68
2022/01/04 15:35:11;;;;;;;3.37;1.60;;;;;;;;;;6105971;28;20236;-66
2022/01/04 15:38:32;;;;;;;2.47;1.47;;;;;;;;;;6110036;28;20235;-65
2022/01/04 15:41:54;;;;;;;3.93;1.77;;;;;;;;;;6105686;28;20255;-66
2022/01/04 15:45:16;;;;;;;3.73;1.17;;;;;;;;;;6106488;28;20236;-64
2022/01/04 15:48:37;;;;;;;5.17;1.33;;;;;;;;;;6107388;28;20936;-66
2022/01/04 15:51:57;;;;;;;3.27;1.13;;;;;;;;;;6106205;28;20713;-65
2022/01/04 15:55:18;;;;;;;3.33;2.00;;;;;;;;;;6106436;28;20243;-66
2022/01/04 15:58:38;;;;;;;9.30;2.27;;;;;;;;;;6104093;28;20247;-65
2022/01/04 16:02:01;;;;;;;3.07;1.20;;;;;;;;;;6101172;28;20240;-67
2022/01/04 16:05:22;;;;;;;3.87;1.90;;;;;;;;;;6106841;28;20324;-65
2022/01/04 16:08:42;;;;;;;4.13;2.27;;;;;;;;;;6109979;28;20562;-65
2022/01/04 16:12:03;;;;;;;2.97;1.97;;;;;;;;;;6100149;28;20239;-65
2022/01/04 16:15:27;;;;;;;5.57;1.70;;;;;;;;;;6099342;28;20236;-65
2022/01/04 16:22:27;;;;;;;2.03;1.80;;;;;;;;;;6097262;28;21155;-65
2022/01/04 16:25:47;;;;;;;4.60;1.83;;;;;;;;;;6098062;28;20241;-65
2022/01/04 16:29:10;;;;;;;4.43;2.00;;;;;;;;;;6097709;28;20248;-66
2022/01/04 16:32:30;;;;;;;5.90;2.07;;;;;;;;;;6101761;28;20283;-65
2022/01/04 16:35:52;;;;;;;5.63;2.93;;;;;;;;;;6106282;28;20223;-65
2022/01/04 16:39:17;;;;;;;3.70;1.70;;;;;;;;;;6103254;28;20235;-66
2022/01/04 16:42:37;;;;;;;2.80;1.40;;;;;;;;;;6107093;28;20746;-65
2022/01/04 16:45:58;;;;;;;1.70;1.27;;;;;;;;;;6113606;28;20235;-65
2022/01/04 16:49:20;;;;;;;3.90;1.47;;;;;;;;;;6113150;28;20232;-66
2022/01/04 16:52:42;;;;;;;4.00;2.40;;;;;;;;;;6105511;28;20314;-66
2022/01/04 16:56:03;;;;;;;3.53;1.57;;;;;;;;;;6111583;28;20606;-65
2022/01/04 16:59:24;;;;;;;5.57;1.20;;;;;;;;;;6114811;28;20235;-65
2022/01/04 17:02:44;;;;;;;8.40;2.20;;;;;;;;;;6110441;28;20227;-65
2022/01/04 17:06:05;;;;;;;4.27;2.37;;;;;;;;;;6114597;28;20282;-66
2022/01/04 17:09:32;;;;;;;5.37;1.70;;;;;;;;;;6112197;28;20232;-64
2022/01/04 17:16:27;;;;;;;9.80;3.20;;;;;;;;;;6115926;28;20246;-65
2022/01/04 17:19:48;;;;;;;4.97;2.20;;;;;;;;;;6116120;28;20227;-65
2022/01/04 17:23:08;;;;;;;3.00;1.93;;;;;;;;;;6108107;28;20231;-65
2022/01/04 17:26:30;;;;;;;4.67;2.00;;;;;;;;;;6108678;28;20255;-65
2022/01/04 17:29:51;;;;;;;4.03;1.63;;;;;;;;;;6122473;28;20236;-65
2022/01/04 17:33:11;;;;;;;4.53;2.07;;;;;;;;;;6120725;28;20247;-65
2022/01/04 17:36:31;;;;;;;11.93;4.53;;;;;;;;;;6115872;28;20232;-64
2022/01/04 17:39:52;;;;;;;3.33;2.93;;;;;;;;;;6108461;28;20231;-65
2022/01/04 17:43:14;;;;;;;2.97;1.67;;;;;;;;;;6109834;28;20238;-64
2022/01/04 17:46:35;;;;;;;8.00;3.57;;;;;;;;;;6111502;28;20236;-65
2022/01/04 17:49:56;;;;;;;4.90;1.53;;;;;;;;;;6119336;28;20239;-65
2022/01/04 17:53:16;;;;;;;3.57;1.67;;;;;;;;;;6119012;28;20235;-64
2022/01/04 17:56:37;;;;;;;8.97;2.37;;;;;;;;;;6117236;28;20227;-65
2022/01/04 17:59:59;;;;;;;3.63;2.37;;;;;;;;;;6117656;28;20318;-65
2022/01/04 18:03:19;;;;;;;4.83;2.30;;;;;;;;;;6116126;28;20239;-64
2022/01/04 18:06:40;;;;;;;7.13;3.77;;;;;;;;;;6117916;28;20232;-66
2022/01/04 18:10:00;;;;;;;5.17;2.73;;;;;;;;;;6115178;28;20284;-65
2022/01/04 18:13:21;;;;;;;7.43;2.37;;;;;;;;;;6108020;28;20228;-65
2022/01/04 18:16:43;;;;;;;3.43;1.93;;;;;;;;;;6121954;28;20803;-65
2022/01/04 18:20:04;;;;;;;3.77;1.87;;;;;;;;;;6116292;28;20329;-65
2022/01/04 18:23:25;;;;;;;10.70;3.47;;;;;;;;;;6109563;28;20247;-65
2022/01/04 18:26:46;;;;;;;7.83;3.23;;;;;;;;;;6116065;28;20272;-66
2022/01/04 18:30:08;;;;;;;7.80;3.47;;;;;;;;;;6116557;28;20232;-65
2022/01/04 18:33:30;;;;;;;12.73;1.80;;;;;;;;;;6115560;28;20231;-64
2022/01/04 18:36:50;;;;;;;8.17;3.03;;;;;;;;;;6116630;28;20224;-64
2022/01/04 18:40:11;;;;;;;6.17;2.83;;;;;;;;;;6116915;28;20268;-64
2022/01/04 18:43:32;;;;;;;5.37;3.13;;;;;;;;;;6114196;28;20231;-64
2022/01/04 18:46:53;;;;;;;5.10;2.97;;;;;;;;;;6115062;28;20252;-63
2022/01/04 18:50:16;;;;;;;5.93;2.07;;;;;;;;;;6115984;28;20235;-64
2022/01/04 18:53:38;;;;;;;4.13;2.27;;;;;;;;;;6116965;28;20236;-65
2022/01/04 18:56:58;;;;;;;5.30;2.13;;;;;;;;;;6116195;28;20614;-65
2022/01/04 19:00:19;;;;;;;6.63;2.50;;;;;;;;;;6113108;28;20235;-65
2022/01/04 19:03:40;;;;;;;5.27;2.23;;;;;;;;;;6120059;28;20609;-64
2022/01/04 19:07:02;;;;;;;2.77;1.70;;;;;;;;;;6114409;28;20240;-64
2022/01/04 19:10:23;;;;;;;7.80;2.30;;;;;;;;;;6130704;28;20239;-64
2022/01/04 19:13:46;;;;;;;5.87;2.43;;;;;;;;;;6111188;28;20244;-67
2022/01/04 19:17:06;;;;;;;4.50;2.50;;;;;;;;;;6104788;28;20236;-66
2022/01/04 19:20:27;;;;;;;8.40;2.80;;;;;;;;;;6115176;28;20530;-65
2022/01/04 19:23:50;;;;;;;6.20;2.67;;;;;;;;;;6114416;28;20228;-64
2022/01/04 19:27:10;;;;;;;3.33;2.47;;;;;;;;;;6112532;28;20548;-64
2022/01/04 19:30:31;;;;;;;7.10;2.57;;;;;;;;;;6116482;28;20362;-64
2022/01/04 19:37:31;;;;;;;7.60;2.27;;;;;;;;;;6110224;28;20669;-65
2022/01/04 19:40:53;;;;;;;5.57;2.20;;;;;;;;;;6117125;28;20228;-64
2022/01/04 19:44:15;;;;;;;8.83;2.53;;;;;;;;;;6110601;28;20251;-65
2022/01/04 19:47:36;;;;;;;5.93;2.30;;;;;;;;;;6101307;28;20323;-65
2022/01/04 19:50:59;;;;;;;4.57;2.07;;;;;;;;;;6099176;28;20243;-64
2022/01/04 19:54:19;;;;;;;5.20;2.63;;;;;;;;;;6106615;28;20606;-64
2022/01/04 19:57:42;;;;;;;8.63;2.53;;;;;;;;;;6104287;28;20235;-64
2022/01/04 20:01:02;;;;;;;7.70;2.93;;;;;;;;;;6100564;28;20255;-64
2022/01/04 20:04:23;;;;;;;7.83;2.40;;;;;;;;;;6104049;28;20240;-64
2022/01/04 20:07:44;;;;;;;3.53;2.47;;;;;;;;;;6103475;28;20322;-64
2022/01/04 20:11:04;;;;;;;6.77;2.77;;;;;;;;;;6100649;28;20236;-65